Time;durP1;ratioP1;P1;durP2;ratioP2;P2;SDS_P1;SDS_P2;PMS_P1;PMS_P2;Temp;Humidity;BMP_temperature;BMP_pressure;BME280_temperature;BME280_humidity;BME280_pressure;Samples;Min_cycle;Max_cycle;Signal;HPM_P1;HPM_P2
2021/05/17 00:02:05;;;;;;;9.18;8.38;;;8.70;83.10;;;;;;4947904;29;20065;-73
2021/05/17 00:04:50;;;;;;;9.00;8.30;;;8.70;83.30;;;;;;4942238;30;20522;-73
2021/05/17 00:07:29;;;;;;;8.90;8.20;;;8.70;83.50;;;;;;4958803;30;20039;-72
2021/05/17 00:10:01;;;;;;;8.95;8.10;;;8.70;83.80;;;;;;4944538;29;20828;-73
2021/05/17 00:12:33;;;;;;;9.40;8.50;;;8.70;83.50;;;;;;4939436;29;20411;-73
2021/05/17 00:15:10;;;;;;;8.98;8.18;;;8.70;84.00;;;;;;4938950;29;20498;-74
2021/05/17 00:17:43;;;;;;;8.85;8.15;;;8.70;83.90;;;;;;4937661;30;20108;-74
2021/05/17 00:20:17;;;;;;;8.90;8.20;;;8.80;84.00;;;;;;4937866;29;20671;-73
2021/05/17 00:22:49;;;;;;;9.43;8.52;;;8.80;83.20;;;;;;4938322;29;20104;-74
2021/05/17 00:25:25;;;;;;;9.20;8.35;;;8.80;85.00;;;;;;4934618;29;20056;-73
2021/05/17 00:28:00;;;;;;;8.85;8.07;;;8.80;84.40;;;;;;4937550;30;20052;-73
2021/05/17 00:30:33;;;;;;;9.20;8.40;;;8.70;83.10;;;;;;4936553;29;20133;-73
2021/05/17 00:33:07;;;;;;;8.77;8.07;;;8.70;83.40;;;;;;4944092;29;20044;-73
2021/05/17 00:35:40;;;;;;;9.23;8.32;;;8.70;84.00;;;;;;4939141;29;20403;-73
2021/05/17 00:38:12;;;;;;;9.32;8.52;;;8.70;83.70;;;;;;4942411;29;20039;-74
2021/05/17 00:40:45;;;;;;;9.45;8.55;;;8.70;83.50;;;;;;4935231;29;20074;-73
2021/05/17 00:43:24;;;;;;;9.10;8.40;;;8.80;82.70;;;;;;4935764;30;20120;-73
2021/05/17 00:45:56;;;;;;;8.85;8.15;;;8.70;81.80;;;;;;4937146;29;20514;-73
2021/05/17 00:48:29;;;;;;;9.15;8.32;;;8.70;82.50;;;;;;4939168;29;20422;-73
2021/05/17 00:51:10;;;;;;;9.07;8.27;;;8.80;81.90;;;;;;4931574;29;20066;-73
2021/05/17 00:53:42;;;;;;;8.95;8.20;;;8.80;83.00;;;;;;4936792;30;20060;-73
2021/05/17 00:56:15;;;;;;;9.50;8.60;;;8.80;82.40;;;;;;4936500;29;20052;-73
2021/05/17 00:58:50;;;;;;;9.73;8.70;;;8.80;82.60;;;;;;4942360;30;20048;-73
2021/05/17 01:01:22;;;;;;;9.18;8.38;;;8.80;81.50;;;;;;4933001;29;20086;-73
2021/05/17 01:03:54;;;;;;;9.43;8.57;;;8.80;82.40;;;;;;4942867;29;20058;-73
2021/05/17 01:06:36;;;;;;;9.18;8.30;;;8.80;81.50;;;;;;4936595;29;20655;-73
2021/05/17 01:09:11;;;;;;;9.85;9.02;;;8.80;82.10;;;;;;4935069;30;20935;-74
2021/05/17 01:11:47;;;;;;;9.40;8.60;;;8.90;81.60;;;;;;4934288;29;20101;-73
2021/05/17 01:14:20;;;;;;;9.30;8.20;;;8.90;81.60;;;;;;4937749;29;20055;-74
2021/05/17 01:16:55;;;;;;;9.32;8.40;;;8.90;81.60;;;;;;4932550;29;20079;-73
2021/05/17 01:19:38;;;;;;;9.40;8.45;;;8.90;81.70;;;;;;4933881;29;20059;-74
2021/05/17 01:22:37;;;;;;;9.45;8.60;;;8.90;82.50;;;;;;4931592;29;20407;-73
2021/05/17 01:25:07;;;;;;;9.35;8.55;;;8.90;81.70;;;;;;4939879;29;20051;-72
2021/05/17 01:27:40;;;;;;;9.20;8.30;;;8.80;80.90;;;;;;4938145;29;20088;-72
2021/05/17 01:30:14;;;;;;;9.50;8.20;;;8.80;80.30;;;;;;4928118;29;20062;-72
2021/05/17 01:32:47;;;;;;;9.32;8.43;;;8.80;80.10;;;;;;4951621;29;20066;-72
2021/05/17 01:35:20;;;;;;;8.98;8.13;;;8.80;81.40;;;;;;4940018;29;20067;-73
2021/05/17 01:37:52;;;;;;;9.10;8.13;;;8.80;80.40;;;;;;4939020;29;20059;-73
2021/05/17 01:40:27;;;;;;;9.00;8.20;;;8.70;76.60;;;;;;4935824;29;20075;-72
2021/05/17 01:43:02;;;;;;;8.57;7.88;;;8.70;76.60;;;;;;4937290;30;20054;-73
2021/05/17 01:45:36;;;;;;;9.20;8.27;;;8.70;78.80;;;;;;4935837;29;20514;-73
2021/05/17 01:48:08;;;;;;;9.10;8.40;;;8.70;78.50;;;;;;4937525;30;20395;-73
2021/05/17 01:50:41;;;;;;;8.98;8.20;;;8.70;78.60;;;;;;4930374;30;20058;-73
2021/05/17 01:53:16;;;;;;;8.80;8.00;;;8.80;79.70;;;;;;4930643;30;20056;-73
2021/05/17 01:55:50;;;;;;;9.00;8.30;;;8.80;80.00;;;;;;4936621;29;20051;-74
2021/05/17 01:58:23;;;;;;;9.20;8.40;;;8.70;80.20;;;;;;4934020;30;20430;-73
2021/05/17 02:01:08;;;;;;;8.77;8.07;;;8.70;79.60;;;;;;4934733;29;20043;-73
2021/05/17 02:03:44;;;;;;;9.07;8.27;;;8.70;80.40;;;;;;4942643;30;20079;-74
2021/05/17 02:06:17;;;;;;;9.35;8.55;;;8.70;80.50;;;;;;4934643;30;20551;-73
2021/05/17 02:08:51;;;;;;;9.07;8.27;;;8.60;81.10;;;;;;4952852;29;20584;-73
2021/05/17 02:11:25;;;;;;;9.20;8.40;;;8.60;81.00;;;;;;4930672;29;20055;-73
2021/05/17 02:14:06;;;;;;;9.35;8.65;;;8.60;81.00;;;;;;4934066;29;20751;-73
2021/05/17 02:16:39;;;;;;;9.20;8.40;;;8.60;81.70;;;;;;4931841;29;20078;-72
2021/05/17 02:19:11;;;;;;;9.40;8.50;;;8.70;81.90;;;;;;4935257;30;20063;-72
2021/05/17 02:21:43;;;;;;;10.02;8.73;;;8.70;82.00;;;;;;4934584;29;20047;-73
2021/05/17 02:24:16;;;;;;;9.52;8.73;;;8.70;81.60;;;;;;4933357;29;20055;-73
2021/05/17 02:26:48;;;;;;;9.38;8.57;;;8.70;82.40;;;;;;4933432;30;20047;-72
2021/05/17 02:29:20;;;;;;;9.48;8.70;;;8.80;81.70;;;;;;4936442;30;20055;-72
2021/05/17 02:31:53;;;;;;;9.27;8.57;;;8.70;80.90;;;;;;4931874;30;20054;-73
2021/05/17 02:34:25;;;;;;;9.35;8.65;;;8.70;81.20;;;;;;4928394;30;20059;-73
2021/05/17 02:36:57;;;;;;;9.45;8.63;;;8.70;81.10;;;;;;4949105;29;20075;-73
2021/05/17 02:39:30;;;;;;;9.55;8.70;;;8.60;80.50;;;;;;4946257;29;20047;-73
2021/05/17 02:42:04;;;;;;;9.32;8.60;;;8.50;80.90;;;;;;4934543;29;20055;-73
2021/05/17 02:44:36;;;;;;;9.20;8.40;;;8.40;81.10;;;;;;4932056;30;20086;-72
2021/05/17 02:47:09;;;;;;;9.65;8.85;;;8.40;81.50;;;;;;4932646;30;20050;-72
2021/05/17 02:49:41;;;;;;;9.32;8.63;;;8.40;81.50;;;;;;4933156;30;20059;-73
2021/05/17 02:52:13;;;;;;;8.95;8.25;;;8.30;81.50;;;;;;4935770;29;20056;-72
2021/05/17 02:55:05;;;;;;;8.90;8.20;;;8.40;82.10;;;;;;4934718;29;20654;-73
2021/05/17 02:57:43;;;;;;;8.93;8.23;;;8.30;82.00;;;;;;4935594;30;20078;-73
2021/05/17 03:00:19;;;;;;;9.48;8.68;;;8.20;82.70;;;;;;4933475;29;20138;-72
2021/05/17 03:02:59;;;;;;;9.68;8.88;;;8.10;81.40;;;;;;4947197;29;20512;-73
2021/05/17 03:05:39;;;;;;;9.77;9.00;;;8.00;81.40;;;;;;4931581;29;20542;-74
2021/05/17 03:08:19;;;;;;;9.60;8.82;;;8.10;79.90;;;;;;4933330;29;20051;-74
2021/05/17 03:10:57;;;;;;;9.43;8.70;;;8.00;80.90;;;;;;4933913;29;20578;-73
2021/05/17 03:13:30;;;;;;;9.05;8.35;;;8.00;80.90;;;;;;4949367;29;20540;-73
2021/05/17 03:16:03;;;;;;;9.20;8.40;;;7.90;81.60;;;;;;4930598;29;20133;-73
2021/05/17 03:18:36;;;;;;;8.88;8.18;;;7.80;81.50;;;;;;4940875;29;20051;-73
2021/05/17 03:21:09;;;;;;;9.23;8.27;;;7.80;80.80;;;;;;4938245;29;20078;-74
2021/05/17 03:23:41;;;;;;;8.85;8.15;;;7.80;80.90;;;;;;4937251;30;20109;-73
2021/05/17 03:26:18;;;;;;;9.10;8.40;;;7.70;80.00;;;;;;4939412;29;20044;-74
2021/05/17 03:28:50;;;;;;;8.90;8.20;;;7.60;80.20;;;;;;4935207;30;20082;-74
2021/05/17 03:31:23;;;;;;;9.02;8.32;;;7.60;80.30;;;;;;4935217;29;20724;-74
2021/05/17 03:33:58;;;;;;;9.65;8.75;;;7.60;80.50;;;;;;4939742;30;20081;-73
2021/05/17 03:36:30;;;;;;;8.88;8.18;;;7.60;80.60;;;;;;4936921;30;20055;-74
2021/05/17 03:39:02;;;;;;;9.13;8.43;;;7.50;80.80;;;;;;4934239;29;20043;-74
2021/05/17 03:41:34;;;;;;;9.27;8.52;;;7.50;80.90;;;;;;4935864;29;20055;-74
2021/05/17 03:44:06;;;;;;;9.38;8.57;;;7.50;81.00;;;;;;4936378;30;20506;-74
2021/05/17 03:46:38;;;;;;;9.10;8.40;;;7.50;81.20;;;;;;4935776;29;20054;-74
2021/05/17 03:49:10;;;;;;;9.52;8.82;;;7.60;81.80;;;;;;4935755;30;20060;-73
2021/05/17 03:51:42;;;;;;;9.65;8.85;;;7.60;81.30;;;;;;4940448;29;20052;-74
2021/05/17 03:54:14;;;;;;;9.63;8.77;;;7.70;81.50;;;;;;4939410;29;20146;-73
2021/05/17 03:56:46;;;;;;;9.32;8.52;;;7.60;83.20;;;;;;4934404;30;20523;-74
2021/05/17 03:59:18;;;;;;;9.00;8.30;;;7.50;81.70;;;;;;4939189;30;20109;-74
2021/05/17 04:01:51;;;;;;;9.48;8.73;;;7.50;82.70;;;;;;4947659;29;20477;-75
2021/05/17 04:04:25;;;;;;;9.50;8.70;;;7.50;82.70;;;;;;4937684;29;20072;-75
2021/05/17 04:13:36;;;;;;;8.93;8.10;;;7.60;82.90;;;;;;4933644;29;20991;-74
2021/05/17 04:15:36;;;;;;;8.82;8.13;;;7.50;83.70;;;;;;4928761;29;20116;-74
2021/05/17 04:18:08;;;;;;;8.80;8.10;;;7.50;84.00;;;;;;4935171;30;20144;-74
2021/05/17 04:20:40;;;;;;;8.85;8.05;;;7.50;84.30;;;;;;4934778;29;20058;-74
2021/05/17 04:23:13;;;;;;;9.27;8.45;;;7.60;83.60;;;;;;4939092;30;20123;-74
2021/05/17 04:25:45;;;;;;;9.10;8.20;;;7.60;83.50;;;;;;4935554;29;20047;-74
2021/05/17 04:28:18;;;;;;;9.18;8.35;;;7.70;83.40;;;;;;4940081;30;20135;-74
2021/05/17 04:30:50;;;;;;;8.80;8.10;;;7.70;83.20;;;;;;4933177;29;20043;-74
2021/05/17 04:33:22;;;;;;;8.63;7.93;;;7.70;83.00;;;;;;4938212;30;20549;-74
2021/05/17 04:35:54;;;;;;;9.02;8.32;;;7.70;83.10;;;;;;4936707;29;20047;-73
2021/05/17 04:38:26;;;;;;;8.63;7.82;;;7.70;83.00;;;;;;4939111;29;20515;-74
2021/05/17 04:40:58;;;;;;;8.57;7.80;;;7.70;83.00;;;;;;4934595;30;20525;-72
2021/05/17 04:43:30;;;;;;;8.30;7.55;;;7.80;82.80;;;;;;4952188;29;20043;-73
2021/05/17 04:46:05;;;;;;;8.82;8.02;;;7.80;83.20;;;;;;4940001;30;20138;-73
2021/05/17 04:48:48;;;;;;;8.20;7.50;;;7.80;83.10;;;;;;4934670;30;20087;-73
2021/05/17 04:51:22;;;;;;;8.10;7.40;;;7.70;83.30;;;;;;4934060;29;20052;-73
2021/05/17 04:53:54;;;;;;;8.48;7.68;;;7.80;83.20;;;;;;4938135;30;20141;-71
2021/05/17 04:56:26;;;;;;;8.55;7.63;;;7.80;83.00;;;;;;4938346;29;20511;-70
2021/05/17 04:58:58;;;;;;;8.30;7.60;;;7.80;83.20;;;;;;4936708;30;20051;-69
2021/05/17 05:01:30;;;;;;;11.32;7.82;;;7.80;83.20;;;;;;4946535;29;20044;-71
2021/05/17 05:04:02;;;;;;;8.70;7.38;;;7.90;83.10;;;;;;4941783;30;20051;-71
2021/05/17 05:06:35;;;;;;;8.55;7.78;;;7.90;83.20;;;;;;4933768;29;20048;-71
2021/05/17 05:09:07;;;;;;;8.43;7.57;;;7.90;82.60;;;;;;4933704;30;20047;-72
2021/05/17 05:11:39;;;;;;;8.95;8.10;;;8.00;83.40;;;;;;4934447;29;20560;-72
2021/05/17 05:14:11;;;;;;;8.38;7.57;;;8.00;82.70;;;;;;4933060;29;20066;-72
2021/05/17 05:16:43;;;;;;;8.77;7.88;;;8.00;83.30;;;;;;4936391;29;20047;-72
2021/05/17 05:19:15;;;;;;;8.82;7.80;;;8.00;83.00;;;;;;4935501;29;20054;-72
2021/05/17 05:21:47;;;;;;;8.50;7.70;;;8.00;83.60;;;;;;4933534;29;20055;-73
2021/05/17 05:24:19;;;;;;;8.02;7.32;;;8.10;84.20;;;;;;4933285;30;20843;-72
2021/05/17 05:29:40;;;;;;;8.55;7.78;;;8.20;83.50;;;;;;4933023;29;20059;-72
2021/05/17 05:34:50;;;;;;;9.63;7.93;;;8.20;83.00;;;;;;4935471;29;20431;-72
2021/05/17 05:37:22;;;;;;;8.70;7.82;;;8.30;83.20;;;;;;4934307;30;20059;-72
2021/05/17 05:39:54;;;;;;;8.10;7.35;;;8.30;81.80;;;;;;4932072;29;20075;-72
2021/05/17 05:42:26;;;;;;;8.73;7.90;;;8.20;82.90;;;;;;4932897;29;20074;-72
2021/05/17 05:44:58;;;;;;;8.88;7.80;;;8.30;82.80;;;;;;4935199;29;20052;-72
2021/05/17 05:47:30;;;;;;;10.32;7.75;;;8.30;83.10;;;;;;4933352;29;20396;-72
2021/05/17 05:50:03;;;;;;;8.38;7.38;;;8.40;83.10;;;;;;4949916;29;20051;-71
2021/05/17 05:52:37;;;;;;;9.05;8.13;;;8.40;81.10;;;;;;4933406;29;20145;-72
2021/05/17 05:55:09;;;;;;;8.63;7.72;;;8.40;81.70;;;;;;4933250;29;20051;-72
2021/05/17 05:57:44;;;;;;;8.80;7.72;;;8.40;78.50;;;;;;4936250;29;20137;-73
2021/05/17 06:00:18;;;;;;;8.13;7.30;;;8.40;81.30;;;;;;4932302;29;20055;-72
2021/05/17 06:02:50;;;;;;;8.27;7.45;;;8.50;81.30;;;;;;4934267;30;20104;-72
2021/05/17 06:05:22;;;;;;;8.32;7.53;;;8.50;82.40;;;;;;4940378;29;20055;-72
2021/05/17 06:07:56;;;;;;;8.70;7.80;;;8.50;81.50;;;;;;4931678;30;20809;-71
2021/05/17 06:10:29;;;;;;;8.20;7.40;;;8.60;82.40;;;;;;4939017;29;20051;-71
2021/05/17 06:13:02;;;;;;;8.18;7.38;;;8.70;82.30;;;;;;4937951;30;20047;-72
2021/05/17 06:15:34;;;;;;;9.43;7.60;;;8.70;81.80;;;;;;4934491;29;20638;-72
2021/05/17 06:18:07;;;;;;;8.50;7.65;;;8.70;82.10;;;;;;4931469;29;20124;-72
2021/05/17 06:20:43;;;;;;;8.85;7.95;;;8.70;82.50;;;;;;4933681;29;20051;-73
2021/05/17 06:23:16;;;;;;;8.45;7.35;;;8.70;82.20;;;;;;4931854;30;20125;-72
2021/05/17 06:25:49;;;;;;;7.90;7.22;;;8.70;80.30;;;;;;4930666;29;20059;-73
2021/05/17 06:28:23;;;;;;;7.72;6.88;;;8.70;77.60;;;;;;4932742;29;20121;-71
2021/05/17 06:30:58;;;;;;;7.53;6.82;;;8.50;76.60;;;;;;4933756;29;20109;-72
2021/05/17 06:33:31;;;;;;;7.43;6.72;;;8.50;78.80;;;;;;4932052;29;20048;-71
2021/05/17 06:36:03;;;;;;;7.43;6.72;;;8.40;78.40;;;;;;4941159;29;20044;-73
2021/05/17 06:38:37;;;;;;;8.15;7.35;;;8.40;78.50;;;;;;4934715;30;20120;-73
2021/05/17 06:41:10;;;;;;;7.97;7.28;;;8.40;79.00;;;;;;4944476;29;20079;-73
2021/05/17 06:43:42;;;;;;;7.45;6.85;;;8.40;79.00;;;;;;4917107;30;20140;-72
2021/05/17 06:46:14;;;;;;;7.82;7.13;;;8.40;80.00;;;;;;4933205;29;20055;-73
2021/05/17 06:48:46;;;;;;;7.20;6.60;;;8.30;77.30;;;;;;4935337;29;20089;-73
2021/05/17 06:51:19;;;;;;;7.10;6.50;;;8.40;78.30;;;;;;4932875;29;20051;-72
2021/05/17 06:53:56;;;;;;;7.10;6.50;;;8.30;78.20;;;;;;4937228;30;20047;-72
2021/05/17 06:56:50;;;;;;;7.22;6.55;;;8.30;77.90;;;;;;4938699;29;20075;-73
2021/05/17 06:59:23;;;;;;;7.32;6.70;;;8.30;78.10;;;;;;4938967;30;20537;-72
2021/05/17 07:01:56;;;;;;;8.20;7.40;;;8.20;78.00;;;;;;4938302;29;20093;-72
2021/05/17 07:04:30;;;;;;;9.13;7.68;;;8.30;78.70;;;;;;4939752;29;20044;-73
2021/05/17 07:07:02;;;;;;;8.00;7.28;;;8.40;79.10;;;;;;4937959;29;20052;-72
2021/05/17 07:12:26;;;;;;;8.98;7.72;;;8.50;79.90;;;;;;4939021;29;20576;-71
2021/05/17 07:15:01;;;;;;;8.15;7.47;;;8.60;79.60;;;;;;4940736;29;20055;-72
2021/05/17 07:17:33;;;;;;;8.30;7.50;;;8.70;79.70;;;;;;4939684;29;20570;-74
2021/05/17 07:20:07;;;;;;;8.13;7.32;;;8.80;79.70;;;;;;4939888;29;20423;-72
2021/05/17 07:25:31;;;;;;;8.40;7.70;;;8.70;80.00;;;;;;4936663;29;20063;-73
2021/05/17 07:28:07;;;;;;;8.55;7.75;;;8.80;80.30;;;;;;4928729;30;20468;-73
2021/05/17 07:30:41;;;;;;;8.68;7.90;;;8.80;78.60;;;;;;4932284;29;20044;-71
2021/05/17 07:33:14;;;;;;;8.20;7.50;;;8.70;78.90;;;;;;4940385;30;20576;-73
2021/05/17 07:35:46;;;;;;;8.07;7.38;;;8.80;78.80;;;;;;4935705;29;20054;-72
2021/05/17 07:38:21;;;;;;;8.35;7.65;;;8.80;77.00;;;;;;4951596;29;20048;-72
2021/05/17 07:40:54;;;;;;;8.65;7.95;;;8.80;78.70;;;;;;4936562;29;20058;-72
2021/05/17 07:43:26;;;;;;;9.35;8.55;;;8.90;79.20;;;;;;4937596;30;20047;-73
2021/05/17 07:45:58;;;;;;;8.43;7.65;;;9.00;79.60;;;;;;4934000;30;20052;-74
2021/05/17 07:48:31;;;;;;;7.88;7.18;;;9.10;80.20;;;;;;4937299;30;20142;-74
2021/05/17 07:51:03;;;;;;;8.40;7.70;;;9.20;78.30;;;;;;4932852;29;20140;-71
2021/05/17 07:53:35;;;;;;;8.55;7.80;;;9.10;78.60;;;;;;4935323;30;20051;-72
2021/05/17 07:56:08;;;;;;;8.40;7.70;;;9.10;80.50;;;;;;4939998;29;20089;-73
2021/05/17 07:58:39;;;;;;;8.43;7.72;;;9.10;79.80;;;;;;4940645;29;20130;-73
2021/05/17 08:01:12;;;;;;;8.38;7.68;;;9.00;77.40;;;;;;4937519;29;20138;-72
2021/05/17 08:03:44;;;;;;;9.23;8.43;;;9.10;79.00;;;;;;4940028;29;20079;-72
2021/05/17 08:06:16;;;;;;;8.43;7.72;;;9.40;79.60;;;;;;4937054;29;20113;-73
2021/05/17 08:08:48;;;;;;;8.60;7.78;;;9.60;80.40;;;;;;4950022;29;20075;-73
2021/05/17 08:11:21;;;;;;;8.93;8.13;;;9.70;79.70;;;;;;4938028;29;20146;-73
2021/05/17 08:13:53;;;;;;;8.65;7.85;;;9.80;77.60;;;;;;4938295;30;20047;-72
2021/05/17 08:16:25;;;;;;;9.15;8.30;;;9.80;80.10;;;;;;4946633;29;20516;-73
2021/05/17 08:18:57;;;;;;;9.10;8.30;;;10.00;78.50;;;;;;4936800;30;20052;-73
2021/05/17 08:21:29;;;;;;;8.77;8.07;;;10.10;77.80;;;;;;4947687;29;20058;-73
2021/05/17 08:24:02;;;;;;;8.95;8.23;;;10.20;76.70;;;;;;4933718;30;20048;-72
2021/05/17 08:26:34;;;;;;;8.73;7.95;;;10.30;78.40;;;;;;4937188;29;20862;-72
2021/05/17 08:29:07;;;;;;;10.38;8.85;;;10.40;78.50;;;;;;4938400;29;20127;-72
2021/05/17 08:31:39;;;;;;;9.05;8.35;;;10.40;77.30;;;;;;4935483;29;20719;-74
2021/05/17 08:34:11;;;;;;;9.05;8.27;;;10.50;76.60;;;;;;4936546;29;20124;-73
2021/05/17 08:36:44;;;;;;;8.60;7.90;;;10.50;74.70;;;;;;4935390;29;20079;-73
2021/05/17 08:39:16;;;;;;;9.32;8.48;;;10.50;74.60;;;;;;4938350;29;20059;-73
2021/05/17 08:41:48;;;;;;;9.15;8.25;;;10.50;77.40;;;;;;4935610;29;20048;-73
2021/05/17 08:44:26;;;;;;;8.85;8.10;;;10.50;75.80;;;;;;4937006;29;20051;-73
2021/05/17 08:46:58;;;;;;;8.70;7.90;;;10.60;77.10;;;;;;4935579;29;20047;-73
2021/05/17 08:49:31;;;;;;;9.07;8.27;;;10.60;75.60;;;;;;4935524;30;20135;-74
2021/05/17 08:52:03;;;;;;;8.93;8.18;;;10.70;74.70;;;;;;4943119;29;20526;-74
2021/05/17 08:54:35;;;;;;;9.38;8.57;;;10.70;77.70;;;;;;4935890;29;20039;-73
2021/05/17 08:57:07;;;;;;;8.80;8.00;;;10.70;76.20;;;;;;4938190;29;20607;-74
2021/05/17 08:59:39;;;;;;;9.07;8.27;;;10.60;75.30;;;;;;4933171;30;20089;-72
2021/05/17 09:02:12;;;;;;;8.80;8.00;;;10.50;75.50;;;;;;4936563;30;20094;-72
2021/05/17 09:05:13;;;;;;;8.85;8.05;;;10.40;76.80;;;;;;4927336;30;20427;-72
2021/05/17 09:07:48;;;;;;;8.88;8.10;;;10.40;74.20;;;;;;4934449;30;20074;-72
2021/05/17 09:10:30;;;;;;;8.90;8.20;;;10.60;75.90;;;;;;4937890;29;20074;-73
2021/05/17 09:13:07;;;;;;;9.30;8.60;;;10.80;77.10;;;;;;4949443;29;20395;-72
2021/05/17 09:15:50;;;;;;;9.45;8.55;;;11.00;74.30;;;;;;4948594;29;20043;-73
2021/05/17 09:18:27;;;;;;;8.93;8.20;;;11.10;76.20;;;;;;4935655;30;20059;-72
2021/05/17 09:21:05;;;;;;;8.60;7.90;;;11.20;74.10;;;;;;4937595;30;20051;-72
2021/05/17 09:23:38;;;;;;;8.88;8.07;;;11.20;74.90;;;;;;4935915;30;20146;-73
2021/05/17 09:26:17;;;;;;;7.68;7.07;;;11.20;74.20;;;;;;4935947;30;20043;-73
2021/05/17 09:28:53;;;;;;;8.30;7.60;;;11.00;75.10;;;;;;4934723;29;20090;-71
2021/05/17 09:31:26;;;;;;;8.43;7.70;;;11.00;75.20;;;;;;4933969;29;20047;-72
2021/05/17 09:34:04;;;;;;;8.40;7.70;;;10.90;75.30;;;;;;4934733;30;20052;-73
2021/05/17 09:36:41;;;;;;;8.77;7.97;;;10.70;74.60;;;;;;4934101;29;20059;-72
2021/05/17 09:39:16;;;;;;;8.70;8.00;;;10.50;75.20;;;;;;4935305;29;20404;-73
2021/05/17 09:41:56;;;;;;;8.00;7.20;;;10.40;74.30;;;;;;4935579;29;20051;-72
2021/05/17 09:44:29;;;;;;;8.85;8.05;;;10.30;74.70;;;;;;4936682;29;20060;-72
2021/05/17 09:47:08;;;;;;;7.70;7.03;;;10.30;77.00;;;;;;4934299;29;20058;-72
2021/05/17 09:49:42;;;;;;;8.07;7.38;;;10.30;73.50;;;;;;4931104;29;20048;-72
2021/05/17 09:52:19;;;;;;;7.57;6.97;;;10.40;76.50;;;;;;4937028;29;20132;-71
2021/05/17 09:54:54;;;;;;;7.63;6.97;;;10.60;77.00;;;;;;4936120;30;20059;-72
2021/05/17 09:57:29;;;;;;;8.10;7.40;;;10.70;72.70;;;;;;4935401;30;20074;-72
2021/05/17 10:00:15;;;;;;;47.95;26.90;;;10.70;73.00;;;;;;4937126;29;20056;-72
2021/05/17 10:02:48;;;;;;;17.23;12.18;;;10.80;76.00;;;;;;4938237;29;20104;-72
2021/05/17 10:05:22;;;;;;;10.73;9.27;;;10.90;74.20;;;;;;4937110;29;20055;-72
2021/05/17 10:07:59;;;;;;;8.32;7.63;;;11.00;74.90;;;;;;4937762;30;20108;-71
2021/05/17 10:10:49;;;;;;;8.45;7.72;;;11.10;73.30;;;;;;4936912;29;20047;-72
2021/05/17 10:13:21;;;;;;;18.52;13.75;;;11.30;76.80;;;;;;4936941;29;20506;-72
2021/05/17 10:15:53;;;;;;;8.90;8.10;;;11.40;75.80;;;;;;4935982;29;20044;-72
2021/05/17 10:18:25;;;;;;;8.90;8.13;;;11.50;72.20;;;;;;4942207;29;20062;-72
2021/05/17 10:20:57;;;;;;;8.70;8.00;;;11.70;71.60;;;;;;4934366;29;20044;-72
2021/05/17 10:23:31;;;;;;;8.93;8.23;;;11.80;72.50;;;;;;4930420;30;20051;-72
2021/05/17 10:26:13;;;;;;;9.25;8.50;;;11.90;71.80;;;;;;4933129;29;20051;-71
2021/05/17 10:28:52;;;;;;;15.75;12.65;;;12.00;72.70;;;;;;4933970;29;20088;-72
2021/05/17 10:31:24;;;;;;;10.00;9.10;;;12.20;72.90;;;;;;4935171;29;20066;-72
2021/05/17 10:34:00;;;;;;;11.00;9.90;;;12.40;71.40;;;;;;4948077;29;20062;-72
2021/05/17 10:36:57;;;;;;;9.73;8.93;;;12.70;73.90;;;;;;4936843;29;20051;-73
2021/05/17 10:39:42;;;;;;;9.15;8.25;;;13.00;72.20;;;;;;4943732;29;20047;-73
2021/05/17 10:48:08;;;;;;;9.13;8.32;;;12.90;66.60;;;;;;4936771;29;20051;-72
2021/05/17 10:50:43;;;;;;;8.80;8.10;;;13.00;71.30;;;;;;4937968;29;20059;-72
2021/05/17 10:53:53;;;;;;;8.82;8.13;;;12.90;68.40;;;;;;4934979;30;20136;-71
2021/05/17 10:56:47;;;;;;;9.40;8.60;;;13.00;67.70;;;;;;4935735;29;20048;-72
2021/05/17 11:02:40;;;;;;;9.60;8.80;;;13.00;64.60;;;;;;4937553;29;20096;-72
2021/05/17 11:05:22;;;;;;;9.05;8.35;;;13.10;65.10;;;;;;4939933;29;20461;-73
2021/05/17 11:07:55;;;;;;;9.20;8.50;;;13.40;68.50;;;;;;4940336;29;20428;-70
2021/05/17 11:10:37;;;;;;;8.95;8.25;;;13.60;67.70;;;;;;4948660;29;20047;-71
2021/05/17 11:13:14;;;;;;;9.40;8.70;;;13.70;63.00;;;;;;4943590;29;20107;-71
2021/05/17 11:16:01;;;;;;;9.40;8.60;;;13.80;66.30;;;;;;4943673;29;20043;-71
2021/05/17 11:18:47;;;;;;;9.48;8.68;;;13.80;64.20;;;;;;4942823;29;20054;-71
2021/05/17 11:21:22;;;;;;;9.20;8.50;;;13.80;65.90;;;;;;4933000;29;20051;-71
2021/05/17 11:23:57;;;;;;;8.80;8.10;;;13.70;60.50;;;;;;4942444;29;20051;-71
2021/05/17 11:26:31;;;;;;;9.35;8.65;;;13.50;64.30;;;;;;4930434;29;20058;-72
2021/05/17 11:29:05;;;;;;;9.52;8.80;;;13.40;62.80;;;;;;4942657;29;20546;-73
2021/05/17 11:31:42;;;;;;;9.48;8.77;;;13.30;64.10;;;;;;4926427;29;20056;-73
2021/05/17 11:34:19;;;;;;;9.57;8.85;;;13.30;65.00;;;;;;4938028;30;20112;-72
2021/05/17 11:36:53;;;;;;;9.57;8.77;;;13.40;64.10;;;;;;4937349;29;20067;-72
2021/05/17 11:39:34;;;;;;;9.20;8.50;;;13.30;66.00;;;;;;4937984;29;20051;-72
2021/05/17 11:42:11;;;;;;;9.20;8.50;;;13.40;67.40;;;;;;4942466;29;20071;-74
2021/05/17 11:44:57;;;;;;;10.10;9.30;;;13.60;68.50;;;;;;4940342;29;20065;-73
2021/05/17 11:47:31;;;;;;;10.48;9.65;;;13.50;65.60;;;;;;4938330;29;20596;-72
2021/05/17 11:50:08;;;;;;;9.90;9.20;;;13.70;66.30;;;;;;4952655;29;21223;-71
2021/05/17 11:52:46;;;;;;;9.68;8.98;;;13.70;67.20;;;;;;4936970;29;20060;-74
2021/05/17 11:55:18;;;;;;;10.20;9.40;;;13.90;66.20;;;;;;4938167;29;20677;-73
2021/05/17 11:57:50;;;;;;;10.30;9.50;;;14.20;65.30;;;;;;4944032;29;20062;-72
2021/05/17 12:00:25;;;;;;;9.52;8.70;;;14.40;67.10;;;;;;4942941;29;20048;-71
2021/05/17 12:02:57;;;;;;;9.68;8.77;;;14.40;66.50;;;;;;4940399;29;20229;-73
2021/05/17 12:05:32;;;;;;;9.98;9.18;;;14.20;65.00;;;;;;4938648;29;20051;-73
2021/05/17 12:08:04;;;;;;;10.35;9.40;;;14.00;65.40;;;;;;4952278;29;20059;-73
2021/05/17 12:10:37;;;;;;;10.27;9.48;;;13.70;63.60;;;;;;4928878;29;20490;-73
2021/05/17 12:13:13;;;;;;;11.00;10.00;;;13.50;64.40;;;;;;4944656;29;20112;-71
2021/05/17 12:15:45;;;;;;;9.18;8.45;;;13.40;66.40;;;;;;4934876;29;20817;-72
2021/05/17 12:18:19;;;;;;;9.23;8.50;;;13.10;60.60;;;;;;4940045;30;20051;-73
2021/05/17 12:20:51;;;;;;;9.15;8.38;;;13.00;66.30;;;;;;4935045;29;20397;-72
2021/05/17 12:23:23;;;;;;;9.52;8.55;;;12.80;67.00;;;;;;4936221;30;20039;-73
2021/05/17 12:25:57;;;;;;;9.13;8.35;;;12.40;63.50;;;;;;4938223;29;20063;-72
2021/05/17 12:28:39;;;;;;;8.80;8.00;;;12.00;63.30;;;;;;4938052;30;20055;-72
2021/05/17 12:31:11;;;;;;;8.68;7.93;;;11.70;67.10;;;;;;4935248;29;20095;-72
2021/05/17 12:33:43;;;;;;;8.13;7.53;;;11.70;69.10;;;;;;4936103;29;20572;-73
2021/05/17 12:36:15;;;;;;;8.65;7.95;;;11.70;70.10;;;;;;4939411;29;21684;-72
2021/05/17 12:38:47;;;;;;;8.45;7.75;;;11.70;69.90;;;;;;4934924;29;20058;-73
2021/05/17 12:41:37;;;;;;;8.95;8.25;;;11.70;70.50;;;;;;4932822;29;20289;-73
2021/05/17 12:44:30;;;;;;;9.40;8.70;;;11.90;69.60;;;;;;4936415;29;20104;-73
2021/05/17 12:47:13;;;;;;;12.45;11.13;;;12.30;71.40;;;;;;4937851;29;20054;-73
2021/05/17 12:49:53;;;;;;;9.82;9.13;;;12.50;75.70;;;;;;4935502;29;20052;-72
2021/05/17 12:52:36;;;;;;;9.85;9.05;;;12.70;70.80;;;;;;4939516;29;20067;-72
2021/05/17 12:55:11;;;;;;;31.40;20.60;;;13.00;68.60;;;;;;4935088;29;20047;-74
2021/05/17 12:58:01;;;;;;;9.80;9.10;;;13.30;70.40;;;;;;4937221;29;20109;-74
2021/05/17 13:00:36;;;;;;;10.10;9.30;;;13.30;69.50;;;;;;4934891;29;20054;-72
2021/05/17 13:03:09;;;;;;;10.93;10.02;;;13.10;70.40;;;;;;4934148;29;20050;-72
2021/05/17 13:05:57;;;;;;;12.00;10.90;;;13.00;66.60;;;;;;4941226;29;20054;-72
2021/05/17 13:08:41;;;;;;;9.60;8.80;;;12.90;69.00;;;;;;4933840;30;20051;-72
2021/05/17 13:11:32;;;;;;;9.82;9.02;;;12.80;68.90;;;;;;4945317;29;20059;-73
2021/05/17 13:14:12;;;;;;;10.18;9.40;;;12.70;69.60;;;;;;4937496;30;20051;-73
2021/05/17 13:16:52;;;;;;;11.00;10.20;;;12.60;69.40;;;;;;4934554;29;20047;-72
2021/05/17 13:19:48;;;;;;;10.40;9.60;;;12.70;68.30;;;;;;4938348;30;20059;-73
2021/05/17 13:30:51;;;;;;;13.43;10.80;;;13.60;68.40;;;;;;4936592;29;20392;-72
2021/05/17 13:33:35;;;;;;;11.63;10.63;;;13.90;65.20;;;;;;4937343;29;20047;-71
2021/05/17 13:36:13;;;;;;;11.50;10.60;;;14.00;66.20;;;;;;4935838;29;20088;-73
2021/05/17 13:38:54;;;;;;;10.57;9.77;;;14.40;67.10;;;;;;4937231;29;20055;-72
2021/05/17 13:41:27;;;;;;;10.40;9.60;;;14.40;64.30;;;;;;4938142;29;20824;-73
2021/05/17 13:44:19;;;;;;;9.93;9.23;;;14.30;62.90;;;;;;4935365;29;20071;-73
2021/05/17 13:46:52;;;;;;;9.77;8.98;;;13.90;65.40;;;;;;4936291;29;20080;-73
2021/05/17 13:49:24;;;;;;;10.02;9.13;;;13.60;66.20;;;;;;4936034;29;20079;-73
2021/05/17 13:51:56;;;;;;;9.70;8.90;;;13.40;66.30;;;;;;4935532;29;20059;-72
2021/05/17 13:54:28;;;;;;;10.18;9.38;;;13.20;69.50;;;;;;4934315;29;20051;-73
2021/05/17 13:57:03;;;;;;;9.30;8.60;;;12.90;68.40;;;;;;4932290;29;20039;-72
2021/05/17 13:59:35;;;;;;;9.90;9.10;;;12.60;65.70;;;;;;4937124;30;20056;-72
2021/05/17 14:02:07;;;;;;;9.27;8.50;;;12.40;68.50;;;;;;4927712;30;20051;-72
2021/05/17 14:04:40;;;;;;;9.60;8.80;;;12.20;70.00;;;;;;4932481;29;20047;-72
2021/05/17 14:07:12;;;;;;;10.00;9.07;;;12.10;70.70;;;;;;4938871;29;20100;-71